Horseshoe Lake, Arkansas
Current Conditions -  °F | °C
As of 2:53 PM on Monday 24 Nov 2014 (Local Time) from KAWM Reporting Station
Clear Clear  
Wind Chill: 13°   Ceiling: Unl
Heat Index: 13°   Visibility: 10mi
Dew Point:   Wind: 7mph
Humidity: 47%   Direction: NA
Pressure: 29.89"   Gusts: 18mph
Location:  34.9503°N, 90.5078°W
Report Text: KAWM 242053Z AUTO VRB06G16KT 10SM CLR 13/02 A2989 RMK AO2 SLP120 T01280017 53001
Loading
Personal Weather Stations






























Interactive Weather Map New forecast layout! Learn more

10-Day Weather Forecast

Advertisements
Track Severe Weather on mobile